createdAt,value
2019-03-18T09:51:16.543Z,7.10
2019-03-18T09:53:45.699Z,11.20
2019-03-18T09:56:14.775Z,11.30
2019-03-18T09:58:43.870Z,11.50
2019-03-18T10:01:12.895Z,11.30
2019-03-18T10:03:41.793Z,11.20
2019-03-18T10:06:10.763Z,10.90
2019-03-18T10:08:39.655Z,10.70
2019-03-18T10:11:08.648Z,10.50
2019-03-18T10:13:37.964Z,10.90
2019-03-18T10:16:06.948Z,10.60
2019-03-18T10:18:36.163Z,10.40
2019-03-18T10:21:05.228Z,10.90
2019-03-18T10:23:34.428Z,11.50
2019-03-18T10:26:03.690Z,11.50
2019-03-18T10:28:32.687Z,11.70
2019-03-18T10:31:01.699Z,10.90
2019-03-18T10:33:30.664Z,10.70
2019-03-18T10:35:59.636Z,10.60
2019-03-18T10:38:28.528Z,10.70
2019-03-18T12:10:11.448Z,10.00
2019-03-18T13:22:01.152Z,11.40
2019-03-18T13:24:30.248Z,10.30
2019-03-18T13:26:59.494Z,10.40
2019-03-18T13:29:28.952Z,10.60
2019-03-18T13:31:57.988Z,10.40
2019-03-18T13:34:27.033Z,10.50
2019-03-18T13:36:55.984Z,10.40
2019-03-18T13:39:25.013Z,10.40
2019-03-18T13:41:54.079Z,10.70
2019-03-18T13:44:23.049Z,10.60
2019-03-18T13:46:52.017Z,10.60
2019-03-18T13:49:21.205Z,11.00
2019-03-18T13:51:50.536Z,11.40
2019-03-18T13:54:19.641Z,11.30
2019-03-18T13:56:48.994Z,11.10
2019-03-18T13:59:18.073Z,11.10
2019-03-18T14:01:47.363Z,10.60
2019-03-18T14:04:16.405Z,10.30
2019-03-18T14:06:45.393Z,10.10
2019-03-18T14:09:14.292Z,9.60
2019-03-18T14:11:43.291Z,9.10
2019-03-18T14:14:12.361Z,8.70
2019-03-18T14:16:41.262Z,8.50
2019-03-18T14:19:10.526Z,8.60
2019-03-18T14:21:39.837Z,8.70
2019-03-18T14:24:09.001Z,9.70
2019-03-18T14:26:38.062Z,10.10
2019-03-18T14:29:07.164Z,10.00
2019-03-18T14:31:36.202Z,9.90
2019-03-18T14:34:05.250Z,9.70
2019-03-18T14:36:34.278Z,9.70
2019-03-18T14:39:04.974Z,9.70
2019-03-18T14:41:33.989Z,9.80
2019-03-18T14:44:03.117Z,10.00
2019-03-18T14:46:32.362Z,10.00
2019-03-18T14:49:01.383Z,10.30
2019-03-18T14:51:30.706Z,10.40
2019-03-18T14:53:59.780Z,10.40
2019-03-18T14:56:28.826Z,10.70
2019-03-18T14:58:57.998Z,10.80
2019-03-18T15:01:26.974Z,10.60
2019-03-18T15:03:56.458Z,10.60
2019-03-18T15:06:25.530Z,10.80
2019-03-18T15:08:54.492Z,10.90
2019-03-18T15:11:24.166Z,10.80
2019-03-18T15:13:53.356Z,10.90
2019-03-18T15:16:22.246Z,10.70
2019-03-18T15:18:51.399Z,10.70
2019-03-18T15:21:20.342Z,10.40
2019-03-18T15:23:49.695Z,9.90
2019-03-18T15:26:18.648Z,9.50
2019-03-18T15:28:47.676Z,9.10
2019-03-18T15:31:16.753Z,8.80
2019-03-18T15:33:45.721Z,8.80
2019-03-18T15:36:14.767Z,8.70
2019-03-18T15:38:43.726Z,8.60
2019-03-18T15:41:12.739Z,8.60
2019-03-18T15:43:41.659Z,8.80
2019-03-18T15:46:10.675Z,8.80
2019-03-18T15:48:39.719Z,8.90
2019-03-18T15:51:08.788Z,9.10
2019-03-18T15:53:38.043Z,9.30
2019-03-18T15:56:07.059Z,9.20
2019-03-18T15:58:36.295Z,9.10
2019-03-18T16:01:05.336Z,9.10
2019-03-18T16:03:34.890Z,9.20
2019-03-18T16:06:04.332Z,9.20
2019-03-18T16:08:33.659Z,9.10
2019-03-18T16:11:02.555Z,9.10
2019-03-18T16:13:31.607Z,9.00
2019-03-18T16:16:00.555Z,9.10
2019-03-18T16:18:29.707Z,8.90
2019-03-18T16:20:58.692Z,8.70
2019-03-18T16:23:27.640Z,8.70
2019-03-18T16:25:56.683Z,8.70
2019-03-18T16:28:25.736Z,8.70
2019-03-18T16:30:54.797Z,8.70
2019-03-18T16:33:23.797Z,8.70
2019-03-18T16:35:52.847Z,8.80
2019-03-18T16:38:21.876Z,8.60
2019-03-18T16:40:50.782Z,8.60
2019-03-18T16:43:19.825Z,8.60
2019-03-18T16:45:48.959Z,8.50
2019-03-18T16:48:18.452Z,8.30
2019-03-18T16:50:47.404Z,8.20
2019-03-18T16:53:16.292Z,8.20
2019-03-18T16:55:45.200Z,8.00
2019-03-18T16:58:14.075Z,8.00
2019-03-18T17:00:43.025Z,7.90
2019-03-18T17:03:12.216Z,7.80
2019-03-18T17:05:41.128Z,7.80
2019-03-18T17:08:10.355Z,7.80
2019-03-18T17:10:39.619Z,7.80
2019-03-18T17:13:08.565Z,7.90
